Altamonte Springs, FL

5:14 AM EDT on September 23, 2014 (GMT -0400)
Orlando International | Change Station
CLOSE
Current Station
Airport
Location: Orlando International,
Elevation: 105 ft
Nearby Weather Stations

Elev 105 ft 28.43 °N, 81.31 °W | Updated 21 minutes ago

Overcast
Overcast
72 °F
Feels Like 72 °F
N
0
Wind Variable Wind from North

Today
High -- | Low -- °F
--% Chance of Precip.
Yesterday
High -- | Low -- °F
Precip. -- in
7:14 AM 7:20 PM
Waning Crescent, 1% visible
Pressure 29.97 in
Visibility 10.0 miles
Clouds Few 400 ft
Scattered Clouds 12000 ft
Mostly Cloudy 14000 ft
Dew Point 71 °F
Humidity 97%
Rainfall 0.00 in
Snow Depth Not available.
UV 0 out of 12
Pollen 2.70 out of 12
Air Quality Not available.
Flu Activity Not available.
METAR KMCO 230853Z 00000KT 10SM FEW004 SCT120 BKN140 22/22 A2997 RMK AO2 SLP147 T02220217 56017

More Conditions Fewer Conditions

Pressure 29.97 in
Visibility 10.0 miles
Clouds Few 400 ft
Scattered Clouds 12000 ft
Mostly Cloudy 14000 ft
Dew Point 71 °F
Humidity 97%
Rainfall 0.00 in
Snow Depth Not available.
UV 0 out of 12
Pollen 2.70 out of 12
Air Quality Not available.
Flu Activity Not available.
METAR KMCO 230853Z 00000KT 10SM FEW004 SCT120 BKN140 22/22 A2997 RMK AO2 SLP147 T02220217 56017

More Conditions Fewer Conditions

Nowcast | as of 2:24 am EDT on September 23, 2014

Mostly cloudy to cloudy skies with a shower or two moving to the northeast at 10 to 15 mph. Most of the precipitation should stay west of Daytona and Orlando. Additional details...including graphics are available online at: http://www.Srh.NOAA.Gov/mlb/blog.Php

×

10-Day Weather Forecast

Almanac

Astronomy

Sep. 23, 2014 Rise Set
Actual Time 7:14 AM EDT 7:20 PM EDT
Civil Twilight 6:50 AM EDT 7:44 PM EDT
Nautical Twilight 6:23 AM EDT 8:11 PM EDT
Astronomical Twilight 5:55 AM EDT 8:39 PM EDT
Moon 6:38 AM EDT 7:00 PM EDT
Length of Visible Light 12h 53m
Length of Day
12h 06m
Tomorrow will be 1m 43s shorter.
Waning Crescent, 1% of the Moon is Illuminated
Today
Waning Crescent
Sep 24
New
Oct 1
First Quarter
Oct 8
Full
Oct 15
Last Quarter

Today's Extremes

State Highs State Lows

Community

WunderPhotos

Upload Photos

1,755,643 photos uploaded!

Nearby

Snow Depth

Station Depth Elevation
No new snow has been reported.

Earthquake Activity

City Distance Mag. Time & Date
No recent earthquake activity has been reported nearby.
Minimum magnitude displayed is 2.5.

Coastal Water Temperatures

Place Temperature
No Stations Reporting

Nearby Weather Stations